Time;durP1;ratioP1;P1;durP2;ratioP2;P2;SDS_P1;SDS_P2;PMS_P1;PMS_P2;Temp;Humidity;BMP_temperature;BMP_pressure;BME280_temperature;BME280_humidity;BME280_pressure;Samples;Min_cycle;Max_cycle;Signal;HPM_P1;HPM_P2
2021/01/31 00:02:05;;;;;;;7.53;6.68;;;4.70;99.90;;;;;;6137774;23;20186;-87
2021/01/31 00:04:39;;;;;;;4.88;4.47;;;4.70;99.90;;;;;;6138934;23;20189;-87
2021/01/31 00:07:22;;;;;;;6.20;5.70;;;4.60;99.90;;;;;;6138826;23;20212;-87
2021/01/31 00:12:58;;;;;;;5.30;4.90;;;4.60;99.90;;;;;;6095036;23;20192;-87
2021/01/31 00:15:41;;;;;;;5.07;4.68;;;4.60;99.90;;;;;;6136397;23;20317;-86
2021/01/31 00:18:22;;;;;;;5.68;5.18;;;4.50;99.90;;;;;;6136152;23;20732;-85
2021/01/31 00:21:12;;;;;;;5.72;5.18;;;4.50;99.90;;;;;;6137243;23;20519;-86
2021/01/31 00:23:44;;;;;;;6.30;5.80;;;4.40;99.90;;;;;;6123920;23;20196;-86
2021/01/31 00:26:43;;;;;;;;;;;;;;;;;;;;;
2021/01/31 00:29:25;;;;;;;6.82;6.22;;;4.40;99.90;;;;;;6138114;23;20215;-87
2021/01/31 00:32:03;;;;;;;6.53;5.93;;;4.40;99.90;;;;;;6138098;23;20186;-87
2021/01/31 00:34:32;;;;;;;6.25;5.72;;;4.50;99.90;;;;;;6137976;23;20173;-86
2021/01/31 00:37:28;;;;;;;5.75;5.25;;;4.50;99.90;;;;;;6137724;23;20202;-87
2021/01/31 00:40:01;;;;;;;6.50;5.97;;;4.50;99.90;;;;;;5991502;24;20565;-87
2021/01/31 00:42:51;;;;;;;6.45;5.95;;;4.50;99.90;;;;;;6090149;23;20176;-87
2021/01/31 00:45:24;;;;;;;7.07;6.57;;;4.50;99.90;;;;;;6128209;23;20201;-87
2021/01/31 00:48:11;;;;;;;5.78;5.25;;;4.50;99.90;;;;;;6138670;23;20212;-87
2021/01/31 00:50:52;;;;;;;7.35;6.65;;;4.50;99.90;;;;;;6138309;23;20185;-87
2021/01/31 00:53:27;;;;;;;8.00;7.18;;;4.50;99.90;;;;;;6137008;23;20172;-86
2021/01/31 00:56:03;;;;;;;7.03;6.40;;;4.50;99.90;;;;;;6138352;23;20175;-87
2021/01/31 00:58:50;;;;;;;7.97;7.18;;;4.50;99.90;;;;;;6137836;23;20182;-87
2021/01/31 01:04:23;;;;;;;7.00;6.30;;;4.50;99.90;;;;;;6124739;23;20260;-86
2021/01/31 01:06:55;;;;;;;8.85;7.10;;;4.50;99.90;;;;;;6139879;23;20209;-87
2021/01/31 01:09:43;;;;;;;8.63;7.75;;;4.50;99.90;;;;;;6139856;23;20175;-86
2021/01/31 01:12:27;;;;;;;8.90;8.00;;;4.50;99.90;;;;;;6140424;23;20181;-86
2021/01/31 01:17:52;;;;;;;7.82;7.03;;;4.50;99.90;;;;;;6106332;23;20196;-87
2021/01/31 01:20:32;;;;;;;8.05;7.35;;;4.50;99.90;;;;;;6138143;23;20172;-87
2021/01/31 01:23:15;;;;;;;7.53;6.35;;;4.60;99.90;;;;;;6133774;23;20172;-86
2021/01/31 01:25:48;;;;;;;7.38;6.65;;;4.60;99.90;;;;;;6134835;23;20168;-86
2021/01/31 01:28:43;;;;;;;7.53;6.82;;;4.60;99.90;;;;;;6134027;23;20207;-87
2021/01/31 01:31:54;;;;;;;7.13;6.53;;;4.60;99.90;;;;;;6135174;23;20169;-88
2021/01/31 01:34:28;;;;;;;7.35;6.65;;;4.60;99.90;;;;;;6134815;23;20185;-86
2021/01/31 01:37:19;;;;;;;8.00;7.20;;;4.60;99.90;;;;;;6136531;23;20204;-87
2021/01/31 01:40:08;;;;;;;9.88;7.53;;;4.60;99.90;;;;;;6135355;23;20688;-87
2021/01/31 01:42:48;;;;;;;8.05;7.25;;;4.60;99.90;;;;;;6125807;23;20181;-87
2021/01/31 01:48:40;;;;;;;7.70;7.07;;;4.60;99.90;;;;;;6133731;23;20184;-86
2021/01/31 01:51:28;;;;;;;7.68;6.97;;;4.60;99.90;;;;;;6134169;23;20206;-87
2021/01/31 01:53:58;;;;;;;9.90;8.32;;;4.60;99.90;;;;;;6140107;23;20188;-87
2021/01/31 01:56:38;;;;;;;8.35;7.40;;;4.60;99.90;;;;;;6141152;23;20222;-87
2021/01/31 01:59:19;;;;;;;9.48;8.48;;;4.60;99.90;;;;;;6141255;23;20162;-87
2021/01/31 02:05:20;;;;;;;9.10;8.18;;;4.60;99.90;;;;;;5938508;24;20190;-87
2021/01/31 02:07:52;;;;;;;8.27;7.47;;;4.50;99.90;;;;;;6079189;23;20222;-87
2021/01/31 02:10:40;;;;;;;9.20;8.40;;;4.50;99.90;;;;;;6080503;23;20164;-87
2021/01/31 02:13:27;;;;;;;8.73;7.45;;;4.50;99.90;;;;;;6078719;23;20267;-88
2021/01/31 02:16:14;;;;;;;8.77;7.93;;;4.50;99.90;;;;;;6134163;23;20162;-87
2021/01/31 02:19:09;;;;;;;8.00;7.25;;;4.40;99.90;;;;;;6132507;23;20193;-87
2021/01/31 02:22:19;;;;;;;9.88;8.98;;;4.40;99.90;;;;;;6137193;23;20192;-87
2021/01/31 02:25:27;;;;;;;8.65;7.75;;;4.40;99.90;;;;;;6139134;23;20259;-86
2021/01/31 02:28:50;;;;;;;7.75;7.03;;;4.40;99.90;;;;;;6139216;23;20196;-87
2021/01/31 02:31:49;;;;;;;9.52;8.63;;;4.40;99.90;;;;;;6139867;23;20177;-88
2021/01/31 02:35:01;;;;;;;8.77;7.78;;;4.40;99.90;;;;;;6140200;23;20176;-87
2021/01/31 02:37:51;;;;;;;;;;;;;;;;;;;;;
2021/01/31 02:44:15;;;;;;;;;;;;;;;;;;;;;
2021/01/31 02:47:22;;;;;;;11.45;9.43;;;4.30;99.90;;;;;;6138574;23;20197;-87
2021/01/31 02:50:08;;;;;;;10.90;9.10;;;4.20;99.90;;;;;;6138929;23;20188;-87
2021/01/31 02:52:51;;;;;;;12.90;10.07;;;4.20;99.90;;;;;;6138745;23;20227;-87
2021/01/31 02:56:24;;;;;;;;;;;;;;;;;;;;;
2021/01/31 03:01:54;;;;;;;10.32;8.27;;;4.00;99.90;;;;;;6113230;23;20199;-87
2021/01/31 03:04:30;;;;;;;11.38;10.02;;;4.00;99.90;;;;;;6140321;23;20184;-87
2021/01/31 03:07:21;;;;;;;;;;;;;;;;;;;;;
2021/01/31 03:12:56;;;;;;;;;;;;;;;;;;;;;
2021/01/31 03:18:36;;;;;;;;;;;;;;;;;;;;;
2021/01/31 03:21:34;;;;;;;13.18;10.93;;;3.90;99.90;;;;;;6138309;23;20227;-87
2021/01/31 03:24:45;;;;;;;10.18;8.82;;;3.90;99.90;;;;;;6139142;23;20169;-87
2021/01/31 03:27:47;;;;;;;14.95;10.48;;;3.90;99.90;;;;;;6097918;23;20211;-86
2021/01/31 03:30:33;;;;;;;10.00;9.00;;;3.90;99.90;;;;;;6141362;23;20187;-86
2021/01/31 03:33:49;;;;;;;;;;;;;;;;;;;;;
2021/01/31 03:39:36;;;;;;;10.88;9.40;;;3.80;99.90;;;;;;6092505;23;20191;-88
2021/01/31 03:42:30;;;;;;;14.90;10.65;;;3.80;99.90;;;;;;6155572;23;20179;-88
2021/01/31 03:48:24;;;;;;;11.57;9.68;;;3.90;99.90;;;;;;6152936;23;20215;-87
2021/01/31 03:51:58;;;;;;;;;;;;;;;;;;;;;
2021/01/31 04:01:21;;;;;;;;;;;;;;;;;;;;;
2021/01/31 04:04:38;;;;;;;11.68;10.45;;;4.10;99.90;;;;;;6140703;23;20504;-87
2021/01/31 04:07:15;;;;;;;11.55;10.35;;;4.10;99.90;;;;;;6025472;23;20204;-88
2021/01/31 04:10:09;;;;;;;10.52;9.45;;;4.10;99.90;;;;;;6131591;23;20183;-87
2021/01/31 04:13:04;;;;;;;;;;;;;;;;;;;;;
2021/01/31 04:19:06;;;;;;;11.05;9.50;;;4.00;99.90;;;;;;6091218;23;20225;-86
2021/01/31 04:21:40;;;;;;;13.25;10.48;;;4.00;99.90;;;;;;6136528;23;20232;-87
2021/01/31 04:28:16;;;;;;;13.27;11.98;;;4.00;99.90;;;;;;6133882;23;20205;-88
2021/01/31 04:37:23;;;;;;;;;;;;;;;;;;;;;
2021/01/31 04:47:06;;;;;;;15.85;12.02;;;3.90;99.90;;;;;;6137157;23;20634;-87
2021/01/31 04:50:05;;;;;;;12.77;10.68;;;3.90;99.90;;;;;;6141853;23;20168;-87
2021/01/31 04:56:12;;;;;;;15.68;11.75;;;4.00;99.90;;;;;;6137422;23;20510;-86
2021/01/31 04:59:19;;;;;;;15.38;10.57;;;4.00;99.90;;;;;;6135644;23;20179;-87
2021/01/31 05:02:00;;;;;;;13.23;11.02;;;4.10;99.90;;;;;;6137865;23;20226;-87
2021/01/31 05:05:00;;;;;;;;;;;;;;;;;;;;;
2021/01/31 05:07:45;;;;;;;11.65;10.48;;;4.10;99.90;;;;;;6139279;23;20199;-86
2021/01/31 05:14:09;;;;;;;10.70;9.60;;;4.20;99.90;;;;;;6127288;23;20703;-88
2021/01/31 05:17:13;;;;;;;;;;;;;;;;;;;;;
2021/01/31 05:20:28;;;;;;;;;;;;;;;;;;;;;
2021/01/31 05:26:59;;;;;;;12.75;10.63;;;4.30;99.90;;;;;;6124985;23;20283;-86
2021/01/31 05:33:00;;;;;;;15.77;11.48;;;4.30;99.90;;;;;;6054146;23;20184;-86
2021/01/31 05:39:33;;;;;;;11.23;9.70;;;4.40;99.90;;;;;;6133474;23;20186;-87
2021/01/31 05:42:29;;;;;;;11.60;10.05;;;4.40;99.90;;;;;;6147567;23;20203;-87
2021/01/31 05:45:15;;;;;;;12.40;10.90;;;4.40;99.90;;;;;;6145673;23;20178;-88
2021/01/31 05:47:56;;;;;;;11.45;9.80;;;4.40;99.90;;;;;;6154173;23;20204;-88
2021/01/31 05:51:12;;;;;;;12.27;10.57;;;4.30;99.90;;;;;;6154562;23;20171;-86
2021/01/31 05:54:11;;;;;;;;;;;;;;;;;;;;;
2021/01/31 05:57:12;;;;;;;16.75;10.90;;;4.20;99.90;;;;;;6151887;23;20209;-86
2021/01/31 06:00:02;;;;;;;14.55;12.30;;;4.20;99.90;;;;;;6152914;23;20225;-83
2021/01/31 06:06:30;;;;;;;15.38;11.20;;;4.10;99.90;;;;;;5979048;24;20210;-83
2021/01/31 06:09:21;;;;;;;13.93;10.95;;;4.10;99.90;;;;;;6084684;23;20198;-83
2021/01/31 06:15:09;;;;;;;13.82;12.05;;;4.10;99.90;;;;;;6152492;23;20172;-83
2021/01/31 06:21:50;;;;;;;13.48;11.15;;;4.10;99.90;;;;;;6120622;23;20183;-84
2021/01/31 06:25:00;;;;;;;;;;;;;;;;;;;;;
2021/01/31 06:27:56;;;;;;;;;;;;;;;;;;;;;
2021/01/31 06:31:36;;;;;;;14.60;11.55;;;4.20;99.90;;;;;;6129361;23;20203;-86
2021/01/31 06:34:07;;;;;;;13.30;11.40;;;4.20;99.90;;;;;;6129163;23;20256;-85
2021/01/31 06:37:23;;;;;;;11.52;10.00;;;4.20;99.90;;;;;;6128692;23;20200;-84
2021/01/31 06:43:45;;;;;;;13.93;10.45;;;4.20;99.90;;;;;;6105387;23;20539;-84
2021/01/31 06:46:24;;;;;;;13.02;11.48;;;4.10;99.90;;;;;;6131947;23;20184;-87
2021/01/31 06:49:46;;;;;;;;;;;;;;;;;;;;;
2021/01/31 06:56:04;;;;;;;;;;;;;;;;;;;;;
2021/01/31 06:58:49;;;;;;;13.40;10.73;;;4.20;99.90;;;;;;6063065;23;20662;-86
2021/01/31 07:01:45;;;;;;;13.10;10.45;;;4.20;99.90;;;;;;6130184;23;20197;-85
2021/01/31 07:04:38;;;;;;;17.98;12.05;;;4.20;99.90;;;;;;6107779;23;20185;-86
2021/01/31 07:07:40;;;;;;;15.93;11.98;;;4.30;99.90;;;;;;6128553;23;20217;-84
2021/01/31 07:10:51;;;;;;;13.23;10.50;;;4.20;99.90;;;;;;6100070;23;20190;-86
2021/01/31 07:13:58;;;;;;;;;;;;;;;;;;;;;
2021/01/31 07:20:09;;;;;;;11.70;10.10;;;4.30;99.90;;;;;;5998405;23;20193;-86
2021/01/31 07:23:04;;;;;;;10.60;9.50;;;4.20;99.90;;;;;;6008953;23;20209;-85
2021/01/31 07:25:46;;;;;;;16.98;12.02;;;4.20;99.90;;;;;;6129546;23;20694;-86
2021/01/31 07:28:33;;;;;;;16.25;12.57;;;4.20;99.90;;;;;;6131767;23;20546;-85
2021/01/31 07:31:11;;;;;;;12.55;10.60;;;4.20;99.90;;;;;;6132500;23;20169;-85
2021/01/31 07:34:06;;;;;;;14.02;10.23;;;4.20;99.90;;;;;;6131847;23;20225;-85
2021/01/31 07:36:48;;;;;;;16.52;12.50;;;4.30;99.90;;;;;;6128895;23;20271;-86
2021/01/31 07:39:37;;;;;;;17.25;13.13;;;4.30;99.90;;;;;;6129202;23;20177;-85
2021/01/31 07:42:32;;;;;;;15.10;10.80;;;4.40;99.90;;;;;;6128342;23;20238;-86
2021/01/31 07:45:27;;;;;;;17.88;13.48;;;4.40;99.90;;;;;;6127232;23;20191;-85
2021/01/31 07:52:30;;;;;;;13.57;11.27;;;4.40;99.90;;;;;;6123432;23;20188;-85
2021/01/31 07:55:21;;;;;;;12.48;10.60;;;4.40;99.90;;;;;;6126371;23;20185;-85
2021/01/31 07:58:38;;;;;;;19.60;12.40;;;4.40;99.90;;;;;;6128030;23;20201;-84
2021/01/31 08:02:11;;;;;;;13.45;12.07;;;4.40;99.90;;;;;;6038510;23;20168;-86
2021/01/31 08:05:15;;;;;;;15.77;11.93;;;4.40;99.90;;;;;;6038303;23;20190;-84
2021/01/31 08:08:37;;;;;;;13.02;11.73;;;4.50;99.90;;;;;;6055938;23;20201;-85
2021/01/31 08:11:31;;;;;;;12.75;10.20;;;4.50;99.90;;;;;;6040556;23;20184;-86
2021/01/31 08:14:00;;;;;;;11.20;10.02;;;4.60;99.90;;;;;;6039662;23;20171;-86
2021/01/31 08:16:56;;;;;;;12.52;11.05;;;4.70;99.90;;;;;;6111336;23;20228;-87
2021/01/31 08:19:39;;;;;;;13.55;9.63;;;4.70;99.90;;;;;;6130070;23;20193;-87
2021/01/31 08:22:34;;;;;;;11.90;9.65;;;4.80;99.90;;;;;;6127575;23;20219;-86
2021/01/31 08:25:20;;;;;;;10.88;9.00;;;4.80;99.90;;;;;;6130330;23;20177;-86
2021/01/31 08:28:35;;;;;;;13.95;10.40;;;4.80;99.90;;;;;;6130908;23;20201;-85
2021/01/31 08:34:40;;;;;;;10.63;9.63;;;4.90;99.90;;;;;;6040576;23;20188;-86
2021/01/31 08:37:42;;;;;;;9.27;8.38;;;4.90;99.90;;;;;;6120091;23;20205;-85
2021/01/31 08:40:40;;;;;;;12.07;9.75;;;5.00;99.90;;;;;;6130722;23;20205;-85
2021/01/31 08:43:26;;;;;;;10.82;9.70;;;5.00;99.90;;;;;;6132911;23;20196;-85
2021/01/31 08:49:22;;;;;;;10.30;8.93;;;5.10;99.90;;;;;;6129858;23;20180;-85
2021/01/31 08:52:30;;;;;;;;;;;;;;;;;;;;;
2021/01/31 08:59:12;;;;;;;;;;;;;;;;;;;;;
2021/01/31 09:09:09;;;;;;;8.02;7.22;;;5.50;99.90;;;;;;5839446;24;20207;-85
2021/01/31 09:14:25;;;;;;;8.73;8.02;;;5.80;99.90;;;;;;6131131;23;20186;-86
2021/01/31 09:17:15;;;;;;;9.30;8.40;;;5.80;99.90;;;;;;6129942;23;20681;-86
2021/01/31 09:23:39;;;;;;;8.15;7.35;;;5.90;99.90;;;;;;6123114;23;20204;-86
2021/01/31 10:05:07;;;;;;;11.52;9.82;;;6.40;99.90;;;;;;5769592;24;20195;-86
2021/01/31 10:07:44;;;;;;;8.70;7.85;;;6.40;99.90;;;;;;5891831;24;20208;-85
2021/01/31 10:13:58;;;;;;;10.20;9.20;;;6.60;99.90;;;;;;6080753;23;20180;-85
2021/01/31 10:17:18;;;;;;;10.77;9.10;;;6.50;99.90;;;;;;6128802;23;20203;-86
2021/01/31 10:26:54;;;;;;;10.70;9.73;;;6.50;99.90;;;;;;6003558;23;20939;-85
2021/01/31 10:43:18;;;;;;;;;;;;;;;;;;;;;
2021/01/31 10:52:48;;;;;;;10.00;8.95;;;6.90;99.90;;;;;;6150564;23;20192;-85
2021/01/31 10:55:17;;;;;;;11.55;9.65;;;7.00;99.90;;;;;;6141945;23;20168;-86
2021/01/31 10:58:23;;;;;;;;;;;;;;;;;;;;;
2021/01/31 11:14:43;;;;;;;10.35;9.05;;;7.30;99.90;;;;;;5786089;24;20305;-86
2021/01/31 11:30:37;;;;;;;;;;;;;;;;;;;;;
2021/01/31 11:33:57;;;;;;;9.50;8.60;;;7.50;99.90;;;;;;5963097;23;20186;-86
2021/01/31 12:13:37;;;;;;;9.35;8.50;;;8.10;99.90;;;;;;5968946;23;20238;-87
2021/01/31 12:26:05;;;;;;;9.80;8.23;;;8.10;99.90;;;;;;5973819;23;20179;-85
2021/01/31 12:28:48;;;;;;;10.05;9.05;;;8.00;99.90;;;;;;6116944;23;20188;-84
2021/01/31 12:31:26;;;;;;;;;;;;;;;;;;;;;
2021/01/31 12:33:59;;;;;;;9.25;7.85;;;7.70;99.90;;;;;;6121197;23;20258;-84
2021/01/31 12:36:26;;;;;;;13.10;9.50;;;7.70;99.90;;;;;;6128974;23;20275;-84
2021/01/31 12:38:57;;;;;;;9.40;7.82;;;7.70;99.90;;;;;;6128346;23;20319;-85
2021/01/31 12:41:25;;;;;;;10.82;9.65;;;7.60;99.90;;;;;;6128477;23;20199;-85
2021/01/31 12:43:54;;;;;;;11.98;9.82;;;7.60;99.90;;;;;;6128983;23;20191;-83
2021/01/31 12:46:31;;;;;;;10.38;9.30;;;7.50;99.90;;;;;;6128224;23;20206;-84
2021/01/31 12:49:05;;;;;;;9.50;8.65;;;7.40;99.90;;;;;;6128804;23;20226;-84
2021/01/31 12:51:54;;;;;;;10.75;9.63;;;7.40;99.90;;;;;;6128120;23;20200;-84
2021/01/31 12:54:34;;;;;;;9.88;8.98;;;7.30;99.90;;;;;;6128631;23;20164;-84
2021/01/31 12:57:16;;;;;;;10.43;8.88;;;7.20;99.90;;;;;;6129124;23;20247;-84
2021/01/31 12:59:56;;;;;;;10.43;9.13;;;7.10;99.90;;;;;;6129218;23;20168;-84
2021/01/31 13:02:46;;;;;;;10.02;9.02;;;7.00;99.90;;;;;;6128358;23;20214;-84
2021/01/31 13:05:30;;;;;;;10.27;9.07;;;7.00;99.90;;;;;;6129288;23;20207;-84
2021/01/31 13:11:17;;;;;;;11.23;10.07;;;7.00;99.90;;;;;;6126233;23;20254;-84
2021/01/31 13:20:37;;;;;;;10.85;9.65;;;7.20;99.90;;;;;;6034271;23;20182;-87
2021/01/31 13:26:20;;;;;;;11.25;10.15;;;7.20;99.90;;;;;;5866325;24;20235;-87
2021/01/31 13:28:53;;;;;;;15.02;11.95;;;7.10;99.90;;;;;;6005447;23;20530;-86
2021/01/31 13:31:22;;;;;;;9.07;8.27;;;7.10;99.90;;;;;;6088451;23;20525;-84
2021/01/31 13:33:48;;;;;;;11.35;9.75;;;7.10;99.90;;;;;;6128690;23;20235;-87
2021/01/31 13:36:22;;;;;;;12.05;9.13;;;7.10;99.90;;;;;;6130212;23;20210;-84
2021/01/31 13:38:49;;;;;;;11.32;10.23;;;7.10;99.90;;;;;;6128888;23;20160;-85
2021/01/31 13:41:18;;;;;;;14.10;12.38;;;7.10;99.90;;;;;;6128903;23;20187;-87
2021/01/31 13:43:58;;;;;;;11.55;10.15;;;7.10;99.90;;;;;;6128757;23;20210;-85
2021/01/31 13:46:33;;;;;;;9.70;8.73;;;7.10;99.90;;;;;;6129516;23;20204;-86
2021/01/31 13:49:09;;;;;;;11.95;10.75;;;7.10;99.90;;;;;;6129136;23;20179;-85
2021/01/31 13:51:40;;;;;;;14.10;12.65;;;7.10;99.90;;;;;;6128389;23;20184;-85
2021/01/31 13:54:08;;;;;;;12.13;11.05;;;7.00;99.90;;;;;;6129663;23;20175;-85
2021/01/31 13:56:42;;;;;;;12.27;10.98;;;7.10;99.90;;;;;;6129232;23;20203;-85
2021/01/31 13:59:12;;;;;;;10.93;9.85;;;7.00;99.90;;;;;;6129607;23;20464;-85
2021/01/31 14:01:43;;;;;;;12.02;10.32;;;7.00;99.90;;;;;;6129209;23;20230;-86
2021/01/31 14:04:09;;;;;;;12.40;11.23;;;7.10;99.90;;;;;;6129960;23;20521;-86
2021/01/31 14:06:38;;;;;;;10.77;9.68;;;7.10;99.90;;;;;;6129938;23;20203;-85
2021/01/31 14:09:05;;;;;;;13.38;11.63;;;7.20;99.90;;;;;;6129604;23;20191;-86
2021/01/31 14:11:31;;;;;;;10.48;9.23;;;7.20;99.90;;;;;;6128705;23;20190;-85
2021/01/31 14:13:57;;;;;;;11.63;10.52;;;7.20;99.90;;;;;;6129414;23;20184;-86
2021/01/31 14:16:23;;;;;;;11.63;10.07;;;7.20;99.90;;;;;;6129343;23;20591;-85
2021/01/31 14:18:49;;;;;;;11.15;9.75;;;7.30;99.90;;;;;;6129650;23;20184;-86
2021/01/31 14:21:16;;;;;;;12.18;10.88;;;7.30;99.90;;;;;;6129545;23;20184;-86
2021/01/31 14:23:44;;;;;;;13.95;12.55;;;7.30;99.90;;;;;;6128472;23;20691;-86
2021/01/31 14:26:11;;;;;;;12.77;10.68;;;7.30;99.90;;;;;;6128506;23;20267;-85
2021/01/31 14:28:37;;;;;;;11.68;10.57;;;7.40;99.90;;;;;;6130879;23;20499;-87
2021/01/31 14:31:03;;;;;;;13.43;11.20;;;7.30;99.90;;;;;;6130294;23;20186;-82
2021/01/31 14:33:30;;;;;;;12.90;11.10;;;7.40;99.90;;;;;;6128661;23;20211;-83
2021/01/31 14:35:56;;;;;;;12.90;11.60;;;7.40;99.90;;;;;;6129510;23;20242;-83
2021/01/31 14:38:22;;;;;;;13.75;11.80;;;7.30;99.90;;;;;;6129021;23;20188;-83
2021/01/31 14:40:49;;;;;;;12.02;9.60;;;7.30;99.90;;;;;;6128499;23;20190;-83
2021/01/31 14:43:15;;;;;;;13.05;11.68;;;7.30;99.90;;;;;;6137143;23;20195;-82
2021/01/31 14:45:42;;;;;;;12.13;10.93;;;7.30;99.90;;;;;;6145019;23;20184;-82
2021/01/31 14:48:11;;;;;;;13.02;11.65;;;7.20;99.90;;;;;;6133483;23;20206;-83
2021/01/31 14:50:40;;;;;;;11.40;10.20;;;7.20;99.90;;;;;;6128433;23;20190;-83
2021/01/31 14:53:06;;;;;;;13.13;10.40;;;7.10;99.90;;;;;;6127924;23;20612;-83
2021/01/31 14:55:33;;;;;;;14.25;10.82;;;7.10;99.90;;;;;;6129482;23;20522;-83
2021/01/31 14:58:00;;;;;;;11.68;9.88;;;7.00;99.90;;;;;;6128218;23;20204;-83
2021/01/31 15:00:29;;;;;;;12.85;11.55;;;7.00;99.90;;;;;;6129253;23;20211;-83
2021/01/31 15:02:56;;;;;;;11.77;10.60;;;6.90;99.90;;;;;;6128255;23;20659;-83
2021/01/31 15:05:24;;;;;;;11.75;10.32;;;6.80;99.90;;;;;;6128153;23;20526;-83
2021/01/31 15:07:50;;;;;;;15.57;12.20;;;6.80;99.90;;;;;;6128033;23;20203;-83
2021/01/31 15:10:19;;;;;;;11.73;10.20;;;6.80;99.90;;;;;;6129327;23;20187;-83
2021/01/31 15:12:45;;;;;;;11.40;10.20;;;6.70;99.90;;;;;;6127929;23;20188;-84
2021/01/31 15:15:12;;;;;;;13.93;12.05;;;6.70;99.90;;;;;;6127866;23;20190;-84
2021/01/31 15:17:40;;;;;;;13.35;12.05;;;6.70;99.90;;;;;;6128069;23;20203;-83
2021/01/31 15:20:09;;;;;;;14.93;11.13;;;6.70;99.90;;;;;;6127702;23;20203;-84
2021/01/31 15:22:35;;;;;;;12.55;11.02;;;6.70;99.90;;;;;;6127539;23;20206;-84
2021/01/31 15:25:02;;;;;;;15.13;11.75;;;6.70;99.90;;;;;;6128427;23;20190;-84
2021/01/31 15:27:28;;;;;;;13.52;12.00;;;6.80;99.90;;;;;;6128444;23;20546;-84
2021/01/31 15:29:54;;;;;;;11.70;9.52;;;6.80;99.90;;;;;;6128054;23;20569;-84
2021/01/31 15:32:21;;;;;;;14.00;11.75;;;6.80;99.90;;;;;;6127652;23;20180;-85
2021/01/31 15:34:48;;;;;;;14.95;11.35;;;6.80;99.90;;;;;;6130271;23;20267;-84
2021/01/31 15:37:14;;;;;;;12.35;11.05;;;6.80;99.90;;;;;;6129643;23;20508;-83
2021/01/31 15:39:42;;;;;;;14.07;12.88;;;6.80;99.90;;;;;;6130340;23;20180;-85
2021/01/31 15:42:09;;;;;;;14.45;12.98;;;6.90;99.90;;;;;;6128956;23;20195;-84
2021/01/31 15:44:35;;;;;;;14.65;12.02;;;6.80;99.90;;;;;;6131977;23;20246;-84
2021/01/31 15:47:02;;;;;;;15.20;11.57;;;6.80;99.90;;;;;;6130881;23;20196;-84
2021/01/31 15:49:30;;;;;;;11.63;10.52;;;6.80;99.90;;;;;;6129830;23;20655;-84
2021/01/31 15:51:56;;;;;;;12.43;11.20;;;6.80;99.90;;;;;;6129386;23;20167;-84
2021/01/31 15:54:23;;;;;;;12.27;10.48;;;6.80;99.90;;;;;;6129521;23;20167;-84
2021/01/31 15:56:49;;;;;;;14.15;11.77;;;6.70;99.90;;;;;;6130242;23;20207;-85
2021/01/31 15:59:17;;;;;;;13.55;11.50;;;6.70;99.90;;;;;;6129792;23;20180;-84
2021/01/31 16:01:55;;;;;;;13.82;11.60;;;6.70;99.90;;;;;;6129473;23;20184;-84
2021/01/31 16:04:31;;;;;;;14.93;12.82;;;6.70;99.90;;;;;;6130637;23;20222;-85
2021/01/31 16:07:09;;;;;;;12.98;11.68;;;6.70;99.90;;;;;;6130494;23;20502;-85
2021/01/31 16:09:56;;;;;;;;;;;;;;;;;;;;;
2021/01/31 16:12:31;;;;;;;12.07;10.85;;;6.60;99.90;;;;;;6128753;23;20669;-84
2021/01/31 16:14:58;;;;;;;13.32;11.93;;;6.60;99.90;;;;;;6129688;23;20186;-84
2021/01/31 16:17:25;;;;;;;12.80;11.40;;;6.60;99.90;;;;;;6129997;23;20203;-85
2021/01/31 16:19:59;;;;;;;14.85;13.45;;;6.60;99.90;;;;;;6129815;23;20191;-84
2021/01/31 16:22:29;;;;;;;15.32;13.65;;;6.50;99.90;;;;;;6129921;23;20187;-85
2021/01/31 16:25:07;;;;;;;;;;;;;;;;;;;;;
2021/01/31 16:27:34;;;;;;;13.90;11.45;;;6.50;99.90;;;;;;6128973;23;20729;-85
2021/01/31 16:30:00;;;;;;;12.98;11.10;;;6.40;99.90;;;;;;6129870;23;20194;-85
2021/01/31 16:32:26;;;;;;;13.77;12.38;;;6.30;99.90;;;;;;6128859;23;20186;-82
2021/01/31 16:34:53;;;;;;;12.85;11.55;;;6.40;99.90;;;;;;6128546;23;20187;-83
2021/01/31 16:37:19;;;;;;;14.20;11.98;;;6.30;99.90;;;;;;6128696;23;20203;-83
2021/01/31 16:39:46;;;;;;;14.90;11.30;;;6.30;99.90;;;;;;6129007;23;20182;-83
2021/01/31 16:42:13;;;;;;;12.95;11.55;;;6.30;99.90;;;;;;6128416;23;20203;-84
2021/01/31 16:44:39;;;;;;;13.50;12.20;;;6.20;99.90;;;;;;6129330;23;20180;-85
2021/01/31 16:47:09;;;;;;;14.55;11.90;;;6.20;99.90;;;;;;6129769;23;20202;-83
2021/01/31 16:49:35;;;;;;;14.45;12.90;;;6.20;99.90;;;;;;6129826;23;20257;-83
2021/01/31 16:52:01;;;;;;;12.60;11.30;;;6.10;99.90;;;;;;6129473;23;20181;-83
2021/01/31 16:54:28;;;;;;;13.15;11.50;;;6.10;99.90;;;;;;6129937;23;20238;-83
2021/01/31 16:56:55;;;;;;;12.27;11.13;;;6.00;99.90;;;;;;6130061;23;20283;-83
2021/01/31 16:59:21;;;;;;;12.77;11.48;;;5.90;99.90;;;;;;6129034;23;20190;-83
2021/01/31 17:01:49;;;;;;;12.85;11.32;;;5.90;99.90;;;;;;6130039;23;20180;-83
2021/01/31 17:04:16;;;;;;;12.43;11.23;;;5.90;99.90;;;;;;6129641;23;20180;-84
2021/01/31 17:06:42;;;;;;;14.23;12.50;;;5.80;99.90;;;;;;6129072;23;20206;-83
2021/01/31 17:09:08;;;;;;;12.20;10.70;;;5.80;99.90;;;;;;6129518;23;20261;-83
2021/01/31 17:11:35;;;;;;;14.00;11.40;;;5.80;99.90;;;;;;6128564;23;20183;-83
2021/01/31 17:14:02;;;;;;;15.38;12.93;;;5.80;99.90;;;;;;6129950;23;20191;-83
2021/01/31 17:16:28;;;;;;;17.33;11.43;;;5.80;99.90;;;;;;6128819;23;20202;-83
2021/01/31 17:18:56;;;;;;;12.60;11.30;;;5.80;99.90;;;;;;6129466;23;20189;-83
2021/01/31 17:21:22;;;;;;;13.23;11.32;;;5.80;99.90;;;;;;6128922;23;20273;-83
2021/01/31 17:23:49;;;;;;;15.55;12.77;;;5.80;99.90;;;;;;6129074;23;20533;-83
2021/01/31 17:26:17;;;;;;;14.63;12.60;;;5.70;99.90;;;;;;6128599;23;20187;-84
2021/01/31 17:28:44;;;;;;;14.75;12.35;;;5.70;99.90;;;;;;6128314;23;20270;-84
2021/01/31 17:31:11;;;;;;;17.92;14.70;;;5.70;99.90;;;;;;6127776;23;20201;-83
2021/01/31 17:33:37;;;;;;;18.90;13.75;;;5.60;99.90;;;;;;6128255;23;20179;-83
2021/01/31 17:36:04;;;;;;;16.35;13.38;;;5.60;99.90;;;;;;6128562;23;20194;-84
2021/01/31 17:38:32;;;;;;;17.15;14.23;;;5.50;99.90;;;;;;6128961;23;20180;-84
2021/01/31 17:40:58;;;;;;;19.15;14.82;;;5.50;99.90;;;;;;6128538;23;20564;-84
2021/01/31 17:43:24;;;;;;;18.45;14.35;;;5.50;99.90;;;;;;6128297;23;20564;-84
2021/01/31 17:45:51;;;;;;;17.38;14.60;;;5.50;99.90;;;;;;6127925;23;20169;-84
2021/01/31 17:48:23;;;;;;;17.55;14.02;;;5.60;99.90;;;;;;6127575;23;20284;-84
2021/01/31 17:50:50;;;;;;;16.58;14.70;;;5.60;99.90;;;;;;6128739;23;20194;-84
2021/01/31 17:53:17;;;;;;;17.65;13.82;;;5.60;99.90;;;;;;6128836;23;20634;-84
2021/01/31 17:55:43;;;;;;;20.23;13.80;;;5.60;99.90;;;;;;6129208;23;20208;-84
2021/01/31 17:58:09;;;;;;;19.50;15.02;;;5.60;99.90;;;;;;6129161;23;20261;-84
2021/01/31 18:03:19;;;;;;;19.60;17.48;;;5.50;99.90;;;;;;6133384;23;20210;-85
2021/01/31 18:05:49;;;;;;;14.40;12.23;;;5.50;99.90;;;;;;6139170;23;20187;-86
2021/01/31 18:08:16;;;;;;;19.02;15.93;;;5.50;99.90;;;;;;6140480;23;20206;-87
2021/01/31 18:17:01;;;;;;;16.90;15.10;;;5.50;99.90;;;;;;6136214;23;20286;-85
2021/01/31 18:19:41;;;;;;;15.88;14.10;;;5.50;99.90;;;;;;6140698;23;20183;-85
2021/01/31 18:22:11;;;;;;;19.50;15.38;;;5.50;99.90;;;;;;6140625;23;20259;-85
2021/01/31 18:24:41;;;;;;;19.52;15.25;;;5.50;99.90;;;;;;6139231;23;20534;-85
2021/01/31 18:27:09;;;;;;;18.83;15.77;;;5.50;99.90;;;;;;6142389;23;20206;-85
2021/01/31 18:29:35;;;;;;;16.52;14.27;;;5.50;99.90;;;;;;6151527;23;20199;-85
2021/01/31 18:32:03;;;;;;;21.05;14.23;;;5.50;99.90;;;;;;6147142;23;20243;-86
2021/01/31 18:34:31;;;;;;;19.63;14.30;;;5.50;99.90;;;;;;6140522;23;20213;-86
2021/01/31 18:37:08;;;;;;;19.73;15.27;;;5.50;99.90;;;;;;6141749;23;20206;-86
2021/01/31 18:39:36;;;;;;;21.50;15.80;;;5.40;99.90;;;;;;6140542;23;20232;-86
2021/01/31 18:42:26;;;;;;;17.10;14.38;;;5.40;99.90;;;;;;6140027;23;20225;-86
2021/01/31 18:44:54;;;;;;;16.33;14.32;;;5.40;99.90;;;;;;6132789;23;20189;-85
2021/01/31 18:47:28;;;;;;;19.83;15.48;;;5.40;99.90;;;;;;6140209;23;20203;-86
2021/01/31 18:50:03;;;;;;;19.60;15.15;;;5.30;99.90;;;;;;6139538;23;20175;-86
2021/01/31 18:52:29;;;;;;;17.52;13.35;;;5.20;99.90;;;;;;6139555;23;20222;-85
2021/01/31 18:55:16;;;;;;;;;;;;;;;;;;;;;
2021/01/31 18:57:42;;;;;;;17.88;15.77;;;5.20;99.90;;;;;;6138739;23;20225;-85
2021/01/31 19:00:15;;;;;;;18.35;14.38;;;5.20;99.90;;;;;;6139292;23;20177;-86
2021/01/31 19:02:42;;;;;;;18.95;15.00;;;5.20;99.90;;;;;;6139710;23;20191;-86
2021/01/31 19:05:11;;;;;;;20.33;15.77;;;5.20;99.90;;;;;;6139619;23;20205;-86
2021/01/31 19:07:37;;;;;;;22.42;16.75;;;5.10;99.90;;;;;;6139035;23;20268;-86
2021/01/31 19:10:05;;;;;;;20.00;15.32;;;5.10;99.90;;;;;;6137715;23;20173;-86
2021/01/31 19:12:32;;;;;;;17.77;13.68;;;5.00;99.90;;;;;;6137986;23;20207;-85
2021/01/31 19:15:03;;;;;;;19.63;15.30;;;5.00;99.90;;;;;;6138534;23;20192;-85
2021/01/31 19:17:35;;;;;;;20.35;16.20;;;5.00;99.90;;;;;;6136620;23;20275;-86
2021/01/31 19:20:04;;;;;;;21.40;16.33;;;5.00;99.90;;;;;;6139353;23;20533;-86
2021/01/31 19:22:40;;;;;;;18.73;14.70;;;5.00;99.90;;;;;;6136706;23;20669;-83